Time;durP1;ratioP1;P1;durP2;ratioP2;P2;SDS_P1;SDS_P2;PMS_P1;PMS_P2;Temp;Humidity;BMP_temperature;BMP_pressure;BME280_temperature;BME280_humidity;BME280_pressure;Samples;Min_cycle;Max_cycle;Signal;HPM_P1;HPM_P2
2024/01/30 00:00:50;;;;;;;;;;;19.00;61.80;;;;;;7318087;19;9382;-69
2024/01/30 00:03:21;;;;;;;;;;;19.00;61.80;;;;;;7316884;19;9192;-68
2024/01/30 00:05:53;;;;;;;;;;;19.00;62.00;;;;;;7315921;19;9985;-68
2024/01/30 00:08:23;;;;;;;;;;;19.00;61.90;;;;;;7314672;19;9019;-69
2024/01/30 00:10:53;;;;;;;;;;;19.00;62.00;;;;;;7317185;19;9272;-68
2024/01/30 00:13:23;;;;;;;;;;;19.00;61.90;;;;;;7316425;19;8952;-68
2024/01/30 00:15:52;;;;;;;;;;;19.00;61.90;;;;;;7316926;19;9271;-68
2024/01/30 00:18:22;;;;;;;;;;;19.00;61.80;;;;;;7316183;19;9352;-68
2024/01/30 00:21:14;;;;;;;;;;;19.10;61.80;;;;;;7316090;19;9190;-68
2024/01/30 00:23:44;;;;;;;;;;;19.10;61.60;;;;;;7316380;19;10516;-68
2024/01/30 00:26:14;;;;;;;;;;;19.10;61.50;;;;;;7317499;19;9501;-69
2024/01/30 00:28:43;;;;;;;;;;;19.20;61.40;;;;;;7316725;19;9027;-68
2024/01/30 00:31:13;;;;;;;;;;;19.30;61.40;;;;;;7318123;19;9177;-68
2024/01/30 00:33:43;;;;;;;;;;;19.30;61.30;;;;;;7314029;19;9360;-69
2024/01/30 00:36:15;;;;;;;;;;;19.40;61.30;;;;;;7317573;19;9217;-68
2024/01/30 00:38:44;;;;;;;;;;;19.50;61.20;;;;;;7313131;19;9251;-68
2024/01/30 00:41:10;;;;;;;;;;;19.50;61.10;;;;;;7316620;19;9994;-68
2024/01/30 00:43:40;;;;;;;;;;;19.50;61.00;;;;;;7317875;19;9338;-68
2024/01/30 00:46:09;;;;;;;;;;;19.60;61.00;;;;;;7311547;19;10047;-71
2024/01/30 00:48:38;;;;;;;;;;;19.60;60.90;;;;;;7317137;19;9193;-71
2024/01/30 00:51:07;;;;;;;;;;;19.70;60.80;;;;;;7311983;19;9251;-71
2024/01/30 00:53:39;;;;;;;;;;;19.70;60.80;;;;;;7295591;19;9292;-71
2024/01/30 00:56:08;;;;;;;;;;;19.70;60.70;;;;;;7170245;19;2766401;-71
2024/01/30 00:58:38;;;;;;;;;;;19.70;60.70;;;;;;7318511;19;9461;-71
2024/01/30 01:01:07;;;;;;;;;;;19.70;60.70;;;;;;7319218;19;9284;-71
2024/01/30 01:03:36;;;;;;;;;;;19.70;60.70;;;;;;7318944;19;9805;-71
2024/01/30 01:06:05;;;;;;;;;;;19.70;60.60;;;;;;7317655;19;8977;-71
2024/01/30 01:08:34;;;;;;;;;;;19.70;60.60;;;;;;7318200;19;9234;-71
2024/01/30 01:11:06;;;;;;;;;;;19.70;60.60;;;;;;7319349;19;9234;-71
2024/01/30 01:13:35;;;;;;;;;;;19.70;60.70;;;;;;7319413;19;9449;-68
2024/01/30 01:16:04;;;;;;;;;;;19.70;60.70;;;;;;7315604;19;9513;-69
2024/01/30 01:18:33;;;;;;;;;;;19.60;60.60;;;;;;7318954;19;9219;-68
2024/01/30 01:21:03;;;;;;;;;;;19.60;60.70;;;;;;7317242;19;9237;-69
2024/01/30 01:23:33;;;;;;;;;;;19.60;60.80;;;;;;7318952;19;9245;-68
2024/01/30 01:26:05;;;;;;;;;;;19.50;60.80;;;;;;7317365;19;9102;-68
2024/01/30 01:28:35;;;;;;;;;;;19.50;60.80;;;;;;7319082;19;9127;-68
2024/01/30 01:31:05;;;;;;;;;;;19.50;60.90;;;;;;7317166;19;9276;-68
2024/01/30 01:33:36;;;;;;;;;;;19.40;60.90;;;;;;7314501;19;9548;-68
2024/01/30 01:36:07;;;;;;;;;;;19.40;61.00;;;;;;7318531;19;9414;-68
2024/01/30 01:38:36;;;;;;;;;;;19.30;61.00;;;;;;7317849;19;9181;-69
2024/01/30 01:41:09;;;;;;;;;;;19.30;61.00;;;;;;7319049;19;9242;-68
2024/01/30 01:43:39;;;;;;;;;;;19.30;61.10;;;;;;7317644;19;9282;-68
2024/01/30 01:46:09;;;;;;;;;;;19.20;61.70;;;;;;7320168;19;9332;-68
2024/01/30 01:48:40;;;;;;;;;;;19.20;61.20;;;;;;7321855;19;9283;-68
2024/01/30 01:51:10;;;;;;;;;;;19.10;61.20;;;;;;7322437;19;9422;-68
2024/01/30 01:53:40;;;;;;;;;;;19.10;61.30;;;;;;7324423;19;9161;-69
2024/01/30 01:56:13;;;;;;;;;;;19.10;61.30;;;;;;7320597;19;8948;-69
2024/01/30 01:58:44;;;;;;;;;;;19.00;61.30;;;;;;7322934;19;9249;-69
2024/01/30 02:01:16;;;;;;;;;;;19.00;61.40;;;;;;7325605;19;9251;-68
2024/01/30 02:03:46;;;;;;;;;;;19.00;61.40;;;;;;7319454;19;9598;-68
2024/01/30 02:06:17;;;;;;;;;;;19.00;61.50;;;;;;7323029;19;9979;-68
2024/01/30 02:08:47;;;;;;;;;;;18.90;61.40;;;;;;7323137;19;9816;-68
2024/01/30 02:11:19;;;;;;;;;;;19.00;61.40;;;;;;7323731;19;9106;-68
2024/01/30 02:13:49;;;;;;;;;;;19.00;61.40;;;;;;7320873;19;9586;-68
2024/01/30 02:16:19;;;;;;;;;;;19.00;61.30;;;;;;7324258;19;9016;-68
2024/01/30 02:18:49;;;;;;;;;;;19.10;61.30;;;;;;7324054;19;9262;-69
2024/01/30 02:21:22;;;;;;;;;;;19.10;61.20;;;;;;7322263;19;9209;-69
2024/01/30 02:23:55;;;;;;;;;;;19.20;61.20;;;;;;7320955;19;9020;-69
2024/01/30 02:26:24;;;;;;;;;;;19.20;61.10;;;;;;7324832;19;9316;-69
2024/01/30 02:28:54;;;;;;;;;;;19.30;61.00;;;;;;7322262;19;9465;-71
2024/01/30 02:31:24;;;;;;;;;;;19.40;61.00;;;;;;7322879;19;9197;-69
2024/01/30 02:33:54;;;;;;;;;;;19.40;60.80;;;;;;7321568;19;9302;-69
2024/01/30 02:36:26;;;;;;;;;;;19.50;60.80;;;;;;7321289;19;9254;-68
2024/01/30 02:38:56;;;;;;;;;;;19.50;60.70;;;;;;7322069;19;9244;-69
2024/01/30 02:41:25;;;;;;;;;;;19.60;60.70;;;;;;7323381;19;9209;-69
2024/01/30 02:43:55;;;;;;;;;;;19.60;60.60;;;;;;7322932;19;10381;-69
2024/01/30 02:46:25;;;;;;;;;;;19.70;60.50;;;;;;7322993;19;9209;-69
2024/01/30 02:48:55;;;;;;;;;;;19.70;60.40;;;;;;7323053;19;9225;-71
2024/01/30 02:51:27;;;;;;;;;;;19.70;60.40;;;;;;7318132;19;9286;-69
2024/01/30 02:53:57;;;;;;;;;;;19.80;60.40;;;;;;7321847;19;9218;-69
2024/01/30 02:56:27;;;;;;;;;;;19.70;60.30;;;;;;7320787;19;9165;-69
2024/01/30 02:58:56;;;;;;;;;;;19.70;60.20;;;;;;7322816;19;9514;-69
2024/01/30 03:01:26;;;;;;;;;;;19.70;60.20;;;;;;7321567;19;9106;-69
2024/01/30 03:03:56;;;;;;;;;;;19.70;60.30;;;;;;7321822;19;9240;-69
2024/01/30 03:06:28;;;;;;;;;;;19.70;60.20;;;;;;7317620;19;9584;-69
2024/01/30 03:08:58;;;;;;;;;;;19.70;60.20;;;;;;7322386;19;9288;-69
2024/01/30 03:11:28;;;;;;;;;;;19.70;60.20;;;;;;7317061;19;9987;-69
2024/01/30 03:13:58;;;;;;;;;;;19.70;60.30;;;;;;7321990;19;9256;-69
2024/01/30 03:16:27;;;;;;;;;;;19.60;60.30;;;;;;7317377;19;9335;-69
2024/01/30 03:18:57;;;;;;;;;;;19.60;60.30;;;;;;7322739;19;9430;-69
2024/01/30 03:21:30;;;;;;;;;;;19.60;60.40;;;;;;7319540;19;9178;-69
2024/01/30 03:23:59;;;;;;;;;;;19.50;60.30;;;;;;7320428;19;9325;-69
2024/01/30 03:26:29;;;;;;;;;;;19.50;60.40;;;;;;7320458;19;9020;-69
2024/01/30 03:28:59;;;;;;;;;;;19.50;60.60;;;;;;7319889;19;9011;-69
2024/01/30 03:31:28;;;;;;;;;;;19.40;60.60;;;;;;7321388;19;9706;-69
2024/01/30 03:33:58;;;;;;;;;;;19.40;60.60;;;;;;7320925;19;9390;-69
2024/01/30 03:36:32;;;;;;;;;;;19.30;60.60;;;;;;7320144;19;9201;-69
2024/01/30 03:39:02;;;;;;;;;;;19.30;60.70;;;;;;7322342;19;9173;-69
2024/01/30 03:41:32;;;;;;;;;;;19.30;60.80;;;;;;7321108;19;9150;-69
2024/01/30 03:44:02;;;;;;;;;;;19.20;60.70;;;;;;7321233;19;9205;-69
2024/01/30 03:46:32;;;;;;;;;;;19.20;60.80;;;;;;7319193;19;9356;-69
2024/01/30 03:49:02;;;;;;;;;;;19.10;60.80;;;;;;7320942;19;9255;-69
2024/01/30 03:51:34;;;;;;;;;;;19.10;60.90;;;;;;7321586;19;10147;-69
2024/01/30 03:54:04;;;;;;;;;;;19.10;60.90;;;;;;7319216;19;9229;-69
2024/01/30 03:56:34;;;;;;;;;;;19.00;60.90;;;;;;7321744;19;9712;-69
2024/01/30 03:59:03;;;;;;;;;;;19.00;61.00;;;;;;7319463;19;9553;-68
2024/01/30 04:01:33;;;;;;;;;;;19.00;61.10;;;;;;7320713;19;9540;-68
2024/01/30 04:04:03;;;;;;;;;;;19.00;61.10;;;;;;7318809;19;9027;-69
2024/01/30 04:06:35;;;;;;;;;;;19.00;61.00;;;;;;7322431;19;9377;-69
2024/01/30 04:09:05;;;;;;;;;;;19.00;61.60;;;;;;7318700;19;9241;-69
2024/01/30 04:11:35;;;;;;;;;;;19.00;61.00;;;;;;7322637;19;9019;-68
2024/01/30 04:14:04;;;;;;;;;;;19.10;61.00;;;;;;7321182;19;9240;-69
2024/01/30 04:16:34;;;;;;;;;;;19.10;60.90;;;;;;7320627;19;9294;-69
2024/01/30 04:19:04;;;;;;;;;;;19.20;60.90;;;;;;7320853;19;9243;-69
2024/01/30 04:21:36;;;;;;;;;;;19.20;60.70;;;;;;7319562;19;9379;-69
2024/01/30 04:24:07;;;;;;;;;;;19.30;60.70;;;;;;7319966;19;9232;-69
2024/01/30 04:26:37;;;;;;;;;;;19.40;60.60;;;;;;7319007;19;9297;-69
2024/01/30 04:29:07;;;;;;;;;;;19.40;60.50;;;;;;7320602;19;9246;-69
2024/01/30 04:31:38;;;;;;;;;;;19.50;60.50;;;;;;7319150;19;9620;-69
2024/01/30 04:34:08;;;;;;;;;;;19.50;60.40;;;;;;7320325;19;9020;-69
2024/01/30 04:36:40;;;;;;;;;;;19.60;60.40;;;;;;7317093;19;9201;-69
2024/01/30 04:39:10;;;;;;;;;;;19.60;60.30;;;;;;7318486;19;9106;-69
2024/01/30 04:41:40;;;;;;;;;;;19.70;60.20;;;;;;7318006;19;9271;-69
2024/01/30 04:44:10;;;;;;;;;;;19.60;60.10;;;;;;7318787;19;9079;-69
2024/01/30 04:46:40;;;;;;;;;;;19.70;60.10;;;;;;7319615;19;9460;-68
2024/01/30 04:49:10;;;;;;;;;;;19.70;60.10;;;;;;7319308;19;9178;-69
2024/01/30 04:51:42;;;;;;;;;;;19.70;60.10;;;;;;7318376;19;9549;-69
2024/01/30 04:54:12;;;;;;;;;;;19.70;60.10;;;;;;7317216;19;9213;-69
2024/01/30 04:56:41;;;;;;;;;;;19.70;60.10;;;;;;7318004;19;9623;-69
2024/01/30 04:59:11;;;;;;;;;;;19.70;60.00;;;;;;7319478;19;9197;-69
2024/01/30 05:01:41;;;;;;;;;;;19.70;60.00;;;;;;7319107;19;9276;-68
2024/01/30 05:04:11;;;;;;;;;;;19.60;60.00;;;;;;7318042;19;9178;-68
2024/01/30 05:06:44;;;;;;;;;;;19.60;60.00;;;;;;7319440;19;9240;-69
2024/01/30 05:09:14;;;;;;;;;;;19.60;60.10;;;;;;7317918;19;9968;-68
2024/01/30 05:11:44;;;;;;;;;;;19.50;60.00;;;;;;7318958;19;9357;-69
2024/01/30 05:14:14;;;;;;;;;;;19.50;60.00;;;;;;7318366;19;9177;-69
2024/01/30 05:16:46;;;;;;;;;;;19.50;60.20;;;;;;7319649;19;9260;-69
2024/01/30 05:19:17;;;;;;;;;;;19.50;60.20;;;;;;7316868;19;9717;-69
2024/01/30 05:21:49;;;;;;;;;;;19.40;60.30;;;;;;7316502;19;9520;-69
2024/01/30 05:24:19;;;;;;;;;;;19.40;60.30;;;;;;7316749;19;9225;-68
2024/01/30 05:26:50;;;;;;;;;;;19.30;60.20;;;;;;7315273;19;10482;-69
2024/01/30 05:29:20;;;;;;;;;;;19.30;60.30;;;;;;7316110;19;9192;-69
2024/01/30 05:31:50;;;;;;;;;;;19.30;60.40;;;;;;7315422;19;9020;-69
2024/01/30 05:34:20;;;;;;;;;;;19.20;60.40;;;;;;7307911;19;9297;-68
2024/01/30 05:36:52;;;;;;;;;;;19.20;60.50;;;;;;7307667;19;11381;-68
2024/01/30 05:39:22;;;;;;;;;;;19.10;60.50;;;;;;7314028;19;9254;-68
2024/01/30 05:41:52;;;;;;;;;;;19.10;60.60;;;;;;7317693;19;9490;-68
2024/01/30 05:44:21;;;;;;;;;;;19.10;60.70;;;;;;7316754;19;9264;-68
2024/01/30 05:46:51;;;;;;;;;;;19.00;60.60;;;;;;7316496;19;9241;-69
2024/01/30 05:49:21;;;;;;;;;;;19.00;60.80;;;;;;7315109;19;9365;-69
2024/01/30 05:51:54;;;;;;;;;;;19.00;60.70;;;;;;7317099;19;9300;-69
2024/01/30 05:54:23;;;;;;;;;;;19.00;60.80;;;;;;7316064;19;9243;-69
2024/01/30 05:56:53;;;;;;;;;;;19.00;60.80;;;;;;7316995;19;9334;-69
2024/01/30 05:59:23;;;;;;;;;;;19.00;60.80;;;;;;7316590;19;9240;-69
2024/01/30 06:01:53;;;;;;;;;;;19.00;60.80;;;;;;7316648;19;9325;-69
2024/01/30 06:04:23;;;;;;;;;;;19.00;60.70;;;;;;7315503;19;9308;-70
2024/01/30 06:06:55;;;;;;;;;;;19.10;60.70;;;;;;7317794;19;10284;-69
2024/01/30 06:09:26;;;;;;;;;;;19.10;60.60;;;;;;7315194;19;9282;-69
2024/01/30 06:11:55;;;;;;;;;;;19.20;60.50;;;;;;7318198;19;9504;-70
2024/01/30 06:14:25;;;;;;;;;;;19.20;60.50;;;;;;7315277;19;9158;-69
2024/01/30 06:16:55;;;;;;;;;;;19.30;60.40;;;;;;7314082;19;9991;-69
2024/01/30 06:19:25;;;;;;;;;;;19.40;60.30;;;;;;7315726;19;9477;-69
2024/01/30 06:21:57;;;;;;;;;;;19.40;60.30;;;;;;7315079;19;9654;-69
2024/01/30 06:24:27;;;;;;;;;;;19.50;60.20;;;;;;7316652;19;9168;-69
2024/01/30 06:26:57;;;;;;;;;;;19.50;60.20;;;;;;7314787;19;10064;-68
2024/01/30 06:29:27;;;;;;;;;;;19.60;60.00;;;;;;7316874;19;9588;-73
2024/01/30 06:31:57;;;;;;;;;;;19.60;60.00;;;;;;7318768;19;9262;-70
2024/01/30 06:34:26;;;;;;;;;;;19.70;60.00;;;;;;7321112;19;9195;-70
2024/01/30 06:36:59;;;;;;;;;;;19.70;60.00;;;;;;7322406;19;9238;-68
2024/01/30 06:39:29;;;;;;;;;;;19.80;59.90;;;;;;7323402;19;9109;-68
2024/01/30 06:41:59;;;;;;;;;;;19.70;59.80;;;;;;7319647;19;9590;-68
2024/01/30 06:44:29;;;;;;;;;;;19.80;59.80;;;;;;7320312;19;9455;-68
2024/01/30 06:46:58;;;;;;;;;;;19.70;59.80;;;;;;7323377;19;9313;-70
2024/01/30 06:49:28;;;;;;;;;;;19.70;59.70;;;;;;7321563;19;11231;-70
2024/01/30 06:52:00;;;;;;;;;;;19.70;59.70;;;;;;7321042;19;9458;-69
2024/01/30 06:54:30;;;;;;;;;;;19.70;59.70;;;;;;7319416;19;9273;-70
2024/01/30 06:57:00;;;;;;;;;;;19.70;59.70;;;;;;7321523;19;9431;-70
2024/01/30 06:59:30;;;;;;;;;;;19.70;59.70;;;;;;7320563;19;9293;-70
2024/01/30 07:02:00;;;;;;;;;;;19.60;59.70;;;;;;7320388;19;9514;-70
2024/01/30 07:04:31;;;;;;;;;;;19.60;59.80;;;;;;7318723;19;9422;-70
2024/01/30 07:07:04;;;;;;;;;;;19.50;59.80;;;;;;7322436;19;9561;-70
2024/01/30 07:09:36;;;;;;;;;;;19.50;59.80;;;;;;7321496;19;9815;-69
2024/01/30 07:12:06;;;;;;;;;;;19.50;59.90;;;;;;7321641;19;10017;-70
2024/01/30 07:14:36;;;;;;;;;;;19.50;60.00;;;;;;7321645;19;9546;-69
2024/01/30 07:17:07;;;;;;;;;;;19.40;60.00;;;;;;7319455;19;9309;-70
2024/01/30 07:19:36;;;;;;;;;;;19.30;60.00;;;;;;7321189;19;9580;-70
2024/01/30 07:22:08;;;;;;;;;;;19.30;60.00;;;;;;7320967;19;9254;-70
2024/01/30 07:24:37;;;;;;;;;;;19.30;60.20;;;;;;7321189;19;9023;-69
2024/01/30 07:27:07;;;;;;;;;;;19.30;60.20;;;;;;7320096;19;9023;-70
2024/01/30 07:29:36;;;;;;;;;;;19.20;60.10;;;;;;7320689;19;9241;-70
2024/01/30 07:32:05;;;;;;;;;;;19.20;60.90;;;;;;7318706;19;9175;-70
2024/01/30 07:34:34;;;;;;;;;;;19.10;60.30;;;;;;7322014;19;9987;-70
2024/01/30 07:37:03;;;;;;;;;;;19.10;60.40;;;;;;7318298;19;9245;-70
2024/01/30 07:39:35;;;;;;;;;;;19.10;60.40;;;;;;7307489;19;9358;-70
2024/01/30 07:42:04;;;;;;;;;;;19.10;60.50;;;;;;7316930;19;9399;-66
2024/01/30 07:44:33;;;;;;;;;;;19.10;60.60;;;;;;7319242;19;9835;-68
2024/01/30 07:47:02;;;;;;;;;;;19.00;60.60;;;;;;7316127;19;9320;-70
2024/01/30 07:49:32;;;;;;;;;;;19.00;60.70;;;;;;7311367;19;9679;-75
2024/01/30 07:52:01;;;;;;;;;;;19.00;60.90;;;;;;7317086;19;9008;-76
2024/01/30 07:54:52;;;;;;;;;;;19.00;61.00;;;;;;7313034;19;9510;-76
2024/01/30 07:57:24;;;;;;;;;;;19.00;61.00;;;;;;7318078;19;9217;-78
2024/01/30 07:59:53;;;;;;;;;;;19.00;61.00;;;;;;7318600;19;10063;-76
2024/01/30 08:02:22;;;;;;;;;;;19.10;61.00;;;;;;7318534;19;9359;-75
2024/01/30 08:04:51;;;;;;;;;;;19.10;61.00;;;;;;7320823;19;9293;-75
2024/01/30 08:07:22;;;;;;;;;;;19.20;60.90;;;;;;7321050;19;9271;-73
2024/01/30 08:09:51;;;;;;;;;;;19.30;60.80;;;;;;7320424;19;9146;-76
2024/01/30 08:12:20;;;;;;;;;;;19.40;60.80;;;;;;7317987;19;9358;-76
2024/01/30 08:14:51;;;;;;;;;;;19.40;60.80;;;;;;7318335;19;8988;-75
2024/01/30 08:17:21;;;;;;;;;;;19.50;60.60;;;;;;7318882;19;9503;-75
2024/01/30 08:19:51;;;;;;;;;;;19.50;60.60;;;;;;7317933;19;9478;-75
2024/01/30 08:22:20;;;;;;;;;;;19.60;60.50;;;;;;7315134;19;9497;-74
2024/01/30 08:24:50;;;;;;;;;;;19.60;60.40;;;;;;7319851;19;9256;-75
2024/01/30 08:27:20;;;;;;;;;;;19.70;60.40;;;;;;7320040;19;9380;-74
2024/01/30 08:29:52;;;;;;;;;;;19.70;60.30;;;;;;7319243;19;9331;-73
2024/01/30 08:32:23;;;;;;;;;;;19.70;60.30;;;;;;7315716;19;9286;-74
2024/01/30 08:34:53;;;;;;;;;;;19.70;60.30;;;;;;7319193;19;9280;-76
2024/01/30 08:37:23;;;;;;;;;;;19.70;60.30;;;;;;7319291;19;9238;-75
2024/01/30 08:39:54;;;;;;;;;;;19.80;60.40;;;;;;7317907;19;9251;-75
2024/01/30 08:42:25;;;;;;;;;;;19.80;60.40;;;;;;7317589;19;9592;-67
2024/01/30 08:44:57;;;;;;;;;;;19.70;60.30;;;;;;7318651;19;9919;-76
2024/01/30 08:47:27;;;;;;;;;;;19.70;60.30;;;;;;7317817;19;9788;-74
2024/01/30 08:49:57;;;;;;;;;;;19.70;60.40;;;;;;7317268;19;10106;-76
2024/01/30 08:52:27;;;;;;;;;;;19.70;60.50;;;;;;7314019;19;9015;-75
2024/01/30 08:54:57;;;;;;;;;;;19.70;60.50;;;;;;7312696;19;9264;-75
2024/01/30 08:57:28;;;;;;;;;;;19.70;60.60;;;;;;7317086;19;9264;-73
2024/01/30 09:00:02;;;;;;;;;;;19.70;60.50;;;;;;7318565;19;9256;-76
2024/01/30 09:02:32;;;;;;;;;;;19.70;60.70;;;;;;7318099;19;9211;-73
2024/01/30 09:05:02;;;;;;;;;;;19.70;60.80;;;;;;7316848;19;10127;-74
2024/01/30 09:07:31;;;;;;;;;;;19.60;60.80;;;;;;7317168;19;9174;-73
2024/01/30 09:10:01;;;;;;;;;;;19.60;60.80;;;;;;7315757;19;9019;-75
2024/01/30 09:12:31;;;;;;;;;;;19.50;60.80;;;;;;7315414;19;9226;-74
2024/01/30 09:15:03;;;;;;;;;;;19.50;60.90;;;;;;7314745;19;9130;-75
2024/01/30 09:17:33;;;;;;;;;;;19.50;61.00;;;;;;7314802;19;9997;-77
2024/01/30 09:20:03;;;;;;;;;;;19.50;61.00;;;;;;7319196;19;9222;-76
2024/01/30 09:22:32;;;;;;;;;;;19.50;61.10;;;;;;7315201;19;9268;-66
2024/01/30 09:25:02;;;;;;;;;;;19.50;61.10;;;;;;7315711;19;9183;-67
2024/01/30 09:27:32;;;;;;;;;;;19.40;61.10;;;;;;7314052;19;9577;-68
2024/01/30 09:30:04;;;;;;;;;;;19.40;61.10;;;;;;7315901;19;9246;-67
2024/01/30 09:32:34;;;;;;;;;;;19.40;61.10;;;;;;7316174;19;9389;-67
2024/01/30 09:35:04;;;;;;;;;;;19.40;61.20;;;;;;7316789;19;9338;-68
2024/01/30 09:37:34;;;;;;;;;;;19.30;61.20;;;;;;7317572;19;9268;-67
2024/01/30 09:40:05;;;;;;;;;;;19.30;61.20;;;;;;7314417;19;9317;-75
2024/01/30 09:42:37;;;;;;;;;;;19.30;61.10;;;;;;7316860;19;10315;-75
2024/01/30 09:45:13;;;;;;;;;;;19.30;61.40;;;;;;7315554;19;9542;-76
2024/01/30 09:47:44;;;;;;;;;;;19.20;61.50;;;;;;7314022;19;9292;-75
2024/01/30 09:50:17;;;;;;;;;;;19.20;61.50;;;;;;7316177;19;9269;-76
2024/01/30 09:52:47;;;;;;;;;;;19.20;61.70;;;;;;7312297;19;9196;-75
2024/01/30 09:55:17;;;;;;;;;;;19.20;61.70;;;;;;7314088;19;9015;-74
2024/01/30 09:57:47;;;;;;;;;;;19.20;61.80;;;;;;7315652;19;8948;-74
2024/01/30 10:00:22;;;;;;;;;;;19.10;61.70;;;;;;7316306;19;9289;-74
2024/01/30 10:02:52;;;;;;;;;;;19.10;61.80;;;;;;7315627;19;9233;-74
2024/01/30 10:05:23;;;;;;;;;;;19.10;61.70;;;;;;7316491;19;9269;-74
2024/01/30 10:07:56;;;;;;;;;;;19.10;61.80;;;;;;7325005;19;9955;-75
2024/01/30 10:10:26;;;;;;;;;;;19.10;61.80;;;;;;7324690;19;9599;-74
2024/01/30 10:12:56;;;;;;;;;;;19.10;61.80;;;;;;7322353;19;9276;-77
2024/01/30 10:15:31;;;;;;;;;;;19.10;61.90;;;;;;7321589;19;9246;-76
2024/01/30 10:18:00;;;;;;;;;;;19.10;62.00;;;;;;7324817;19;9106;-77
2024/01/30 10:20:30;;;;;;;;;;;19.10;62.10;;;;;;7319844;19;9379;-76
2024/01/30 10:23:00;;;;;;;;;;;19.10;62.00;;;;;;7322654;19;9016;-74
2024/01/30 10:25:30;;;;;;;;;;;19.10;62.10;;;;;;7321369;19;10964;-75
2024/01/30 10:28:01;;;;;;;;;;;19.10;62.00;;;;;;7322912;19;9304;-75
2024/01/30 10:30:33;;;;;;;;;;;19.20;61.90;;;;;;7323957;19;8948;-75
2024/01/30 10:33:03;;;;;;;;;;;19.30;61.80;;;;;;7323469;19;9415;-65
2024/01/30 10:35:33;;;;;;;;;;;19.30;61.70;;;;;;7322035;19;9170;-67
2024/01/30 10:38:03;;;;;;;;;;;19.40;61.60;;;;;;7322734;19;9193;-76
2024/01/30 10:40:38;;;;;;;;;;;19.50;61.50;;;;;;7322770;19;9197;-74
2024/01/30 10:43:13;;;;;;;;;;;19.60;61.50;;;;;;7318098;19;8956;-67
2024/01/30 10:45:51;;;;;;;;;;;19.60;61.50;;;;;;7321993;19;9512;-75
2024/01/30 10:48:24;;;;;;;;;;;19.70;61.30;;;;;;7322118;19;9586;-74
2024/01/30 10:51:00;;;;;;;;;;;19.70;61.20;;;;;;7322787;19;9465;-74
2024/01/30 10:53:32;;;;;;;;;;;19.70;61.20;;;;;;7319383;19;9268;-74
2024/01/30 10:56:03;;;;;;;;;;;19.70;61.20;;;;;;7319460;19;9406;-74
2024/01/30 10:58:33;;;;;;;;;;;19.80;61.20;;;;;;7323802;19;9596;-73
2024/01/30 11:01:08;;;;;;;;;;;19.80;61.20;;;;;;7320589;19;9019;-73
2024/01/30 11:03:39;;;;;;;;;;;19.80;61.20;;;;;;7317715;19;9259;-72
2024/01/30 11:06:18;;;;;;;;;;;19.80;61.10;;;;;;7319986;19;9371;-72
2024/01/30 11:08:48;;;;;;;;;;;19.80;61.20;;;;;;7320984;19;9580;-72
2024/01/30 11:11:19;;;;;;;;;;;19.80;61.30;;;;;;7322675;19;10968;-72
2024/01/30 11:13:53;;;;;;;;;;;19.80;61.30;;;;;;7321320;19;9539;-71
2024/01/30 11:16:25;;;;;;;;;;;19.80;61.30;;;;;;7320621;19;9261;-71
2024/01/30 11:18:55;;;;;;;;;;;19.80;61.30;;;;;;7321684;19;9222;-71
2024/01/30 11:21:28;;;;;;;;;;;19.80;61.30;;;;;;7319411;19;9269;-72
2024/01/30 11:23:59;;;;;;;;;;;19.80;61.40;;;;;;7320302;19;9278;-73
2024/01/30 11:26:31;;;;;;;;;;;19.70;61.40;;;;;;7322318;19;10074;-75
2024/01/30 11:29:05;;;;;;;;;;;19.70;61.40;;;;;;7322007;19;9245;-65
2024/01/30 11:31:37;;;;;;;;;;;19.70;61.40;;;;;;7317642;19;9226;-68
2024/01/30 11:34:08;;;;;;;;;;;19.70;61.50;;;;;;7320978;19;9264;-67
2024/01/30 11:36:41;;;;;;;;;;;19.60;61.50;;;;;;7319993;19;9040;-78
2024/01/30 11:39:12;;;;;;;;;;;19.60;61.60;;;;;;7320826;19;9354;-80
2024/01/30 11:41:44;;;;;;;;;;;19.60;61.80;;;;;;7318870;19;9551;-76
2024/01/30 11:44:13;;;;;;;;;;;19.50;61.80;;;;;;7317490;19;10067;-76
2024/01/30 11:46:46;;;;;;;;;;;19.50;61.90;;;;;;7258755;19;9490;-74
2024/01/30 11:49:16;;;;;;;;;;;19.50;61.90;;;;;;7322150;19;9576;-73
2024/01/30 11:51:48;;;;;;;;;;;19.50;62.00;;;;;;7321215;19;9356;-73
2024/01/30 11:54:18;;;;;;;;;;;19.50;62.00;;;;;;7320363;19;9261;-74
2024/01/30 11:56:48;;;;;;;;;;;19.50;62.10;;;;;;7321569;19;9229;-73
2024/01/30 11:59:18;;;;;;;;;;;19.40;62.10;;;;;;7321611;19;9229;-73
2024/01/30 12:01:51;;;;;;;;;;;19.40;62.10;;;;;;7321439;19;9352;-73
2024/01/30 12:04:20;;;;;;;;;;;19.40;62.20;;;;;;7319186;19;9114;-73
2024/01/30 12:06:54;;;;;;;;;;;19.30;62.20;;;;;;7321315;19;9258;-73
2024/01/30 12:09:23;;;;;;;;;;;19.30;62.20;;;;;;7320555;19;9245;-73
2024/01/30 12:11:53;;;;;;;;;;;19.30;62.20;;;;;;7320848;19;9259;-73
2024/01/30 12:14:25;;;;;;;;;;;19.30;62.30;;;;;;7318186;19;9272;-76
2024/01/30 12:16:58;;;;;;;;;;;19.30;62.30;;;;;;7318903;19;9200;-76
2024/01/30 12:19:28;;;;;;;;;;;19.30;62.40;;;;;;7320659;19;9265;-77
2024/01/30 12:21:58;;;;;;;;;;;19.20;62.30;;;;;;7319047;19;9308;-77
2024/01/30 12:24:30;;;;;;;;;;;19.20;62.30;;;;;;7318148;19;9304;-78
2024/01/30 12:27:00;;;;;;;;;;;19.20;62.40;;;;;;7319216;19;9765;-76
2024/01/30 12:29:30;;;;;;;;;;;19.20;62.50;;;;;;7316924;19;9020;-72
2024/01/30 12:32:03;;;;;;;;;;;19.10;62.40;;;;;;7315001;19;9955;-71
2024/01/30 12:34:32;;;;;;;;;;;19.20;62.50;;;;;;7311934;19;9245;-67
2024/01/30 12:37:02;;;;;;;;;;;19.10;62.50;;;;;;7315378;19;8968;-71
2024/01/30 12:39:32;;;;;;;;;;;19.10;62.50;;;;;;7314964;19;10073;-65
2024/01/30 12:42:03;;;;;;;;;;;19.10;62.60;;;;;;7317727;19;9245;-66
2024/01/30 12:44:33;;;;;;;;;;;19.10;62.70;;;;;;7306577;19;9222;-65
2024/01/30 12:47:06;;;;;;;;;;;19.10;62.60;;;;;;7321318;19;9258;-65
2024/01/30 12:49:35;;;;;;;;;;;19.10;62.60;;;;;;7318290;19;9209;-65
2024/01/30 12:52:06;;;;;;;;;;;19.10;62.60;;;;;;7316032;19;9366;-65
2024/01/30 12:54:35;;;;;;;;;;;19.00;62.60;;;;;;7318236;19;9123;-66
2024/01/30 12:57:05;;;;;;;;;;;19.10;62.60;;;;;;7320322;19;9209;-65
2024/01/30 12:59:35;;;;;;;;;;;19.00;62.50;;;;;;7319627;19;9213;-65
2024/01/30 13:02:09;;;;;;;;;;;19.00;62.60;;;;;;7320887;19;9300;-66
2024/01/30 13:04:39;;;;;;;;;;;19.00;62.60;;;;;;7318895;19;9288;-65
2024/01/30 13:07:09;;;;;;;;;;;19.10;62.60;;;;;;7316211;19;9221;-66
2024/01/30 13:09:39;;;;;;;;;;;19.10;62.50;;;;;;7315800;19;9211;-66
2024/01/30 13:12:09;;;;;;;;;;;19.10;62.50;;;;;;7318813;19;10048;-66
2024/01/30 13:14:39;;;;;;;;;;;19.10;62.50;;;;;;7320350;19;9705;-66
2024/01/30 13:17:11;;;;;;;;;;;19.20;62.20;;;;;;7319441;19;9187;-66
2024/01/30 13:19:41;;;;;;;;;;;19.30;62.20;;;;;;7320449;19;9959;-66
2024/01/30 13:22:10;;;;;;;;;;;19.40;62.00;;;;;;7316953;19;10738;-65
2024/01/30 13:24:40;;;;;;;;;;;19.40;61.90;;;;;;7319575;19;9518;-65
2024/01/30 13:27:10;;;;;;;;;;;19.50;61.80;;;;;;7318481;19;9213;-66
2024/01/30 13:29:40;;;;;;;;;;;19.50;61.80;;;;;;7319041;19;9205;-65
2024/01/30 13:32:12;;;;;;;;;;;19.60;61.70;;;;;;7319171;19;9158;-65
2024/01/30 13:34:42;;;;;;;;;;;19.60;61.60;;;;;;7318864;19;9245;-66
2024/01/30 13:37:12;;;;;;;;;;;19.60;61.50;;;;;;7317869;19;9228;-65
2024/01/30 13:39:42;;;;;;;;;;;19.70;61.40;;;;;;7319083;19;9213;-66
2024/01/30 13:42:12;;;;;;;;;;;19.70;61.30;;;;;;7326669;19;9292;-66
2024/01/30 13:44:43;;;;;;;;;;;19.70;61.30;;;;;;7324716;19;9525;-65
2024/01/30 13:47:16;;;;;;;;;;;19.80;61.30;;;;;;7326401;19;9249;-66
2024/01/30 13:49:45;;;;;;;;;;;19.70;61.30;;;;;;7323638;19;9190;-65
2024/01/30 13:52:16;;;;;;;;;;;19.70;61.20;;;;;;7321983;19;9259;-66
2024/01/30 13:54:45;;;;;;;;;;;19.70;61.10;;;;;;7323885;19;9424;-65
2024/01/30 13:57:16;;;;;;;;;;;19.70;61.10;;;;;;7325558;19;9639;-65
2024/01/30 13:59:46;;;;;;;;;;;19.70;61.10;;;;;;7325404;19;9370;-66
2024/01/30 14:02:18;;;;;;;;;;;19.70;61.10;;;;;;7325756;19;9149;-65
2024/01/30 14:04:48;;;;;;;;;;;19.70;61.20;;;;;;7325630;19;9218;-66
2024/01/30 14:07:18;;;;;;;;;;;19.60;61.20;;;;;;7322136;19;8948;-66
2024/01/30 14:09:48;;;;;;;;;;;19.60;61.20;;;;;;7321492;19;9285;-65
2024/01/30 14:12:18;;;;;;;;;;;19.60;61.20;;;;;;7324025;19;9820;-65
2024/01/30 14:14:47;;;;;;;;;;;19.60;61.20;;;;;;7324140;19;9965;-66
2024/01/30 14:17:20;;;;;;;;;;;19.60;61.20;;;;;;7324292;19;9453;-65
2024/01/30 14:19:49;;;;;;;;;;;19.50;61.20;;;;;;7323922;19;9510;-66
2024/01/30 14:22:19;;;;;;;;;;;19.50;61.20;;;;;;7320034;19;8948;-65
2024/01/30 14:24:49;;;;;;;;;;;19.50;61.30;;;;;;7324178;19;9166;-65
2024/01/30 14:27:18;;;;;;;;;;;19.50;61.30;;;;;;7320180;19;9252;-65
2024/01/30 14:29:48;;;;;;;;;;;19.50;61.40;;;;;;7323903;19;9322;-65
2024/01/30 14:32:20;;;;;;;;;;;19.50;61.40;;;;;;7324554;19;9511;-65
2024/01/30 14:34:50;;;;;;;;;;;19.50;61.40;;;;;;7323346;19;9020;-65
2024/01/30 14:37:20;;;;;;;;;;;19.40;61.40;;;;;;7323078;19;9225;-66
2024/01/30 14:39:50;;;;;;;;;;;19.40;61.50;;;;;;7321832;19;9016;-65
2024/01/30 14:42:20;;;;;;;;;;;19.40;61.50;;;;;;7321839;19;9019;-65
2024/01/30 14:44:49;;;;;;;;;;;19.30;61.50;;;;;;7323413;19;9293;-65
2024/01/30 14:47:22;;;;;;;;;;;19.30;61.50;;;;;;7323778;19;9223;-66